createdAt,value
2023-02-09T00:01:29.794Z,70.03
2023-02-09T00:03:58.101Z,68.67
2023-02-09T00:06:26.332Z,65.07
2023-02-09T00:08:53.669Z,68.53
2023-02-09T00:11:46.803Z,66.30
2023-02-09T00:14:16.341Z,64.93
2023-02-09T00:16:43.504Z,68.57
2023-02-09T00:19:12.024Z,69.40
2023-02-09T00:21:40.283Z,67.73
2023-02-09T00:24:08.287Z,69.33
2023-02-09T00:26:35.238Z,71.57
2023-02-09T00:29:03.053Z,69.10
2023-02-09T00:31:30.237Z,69.60
2023-02-09T00:33:58.940Z,68.60
2023-02-09T00:36:27.741Z,69.43
2023-02-09T00:38:54.959Z,66.83
2023-02-09T00:41:43.005Z,68.63
2023-02-09T00:44:11.696Z,70.17
2023-02-09T00:46:38.979Z,69.00
2023-02-09T00:49:06.046Z,70.57
2023-02-09T00:51:33.590Z,71.60
2023-02-09T00:54:02.793Z,71.73
2023-02-09T00:56:29.942Z,72.33
2023-02-09T00:58:57.049Z,70.77
2023-02-09T01:01:25.318Z,68.43
2023-02-09T01:03:53.358Z,71.17
2023-02-09T01:06:21.441Z,73.00
2023-02-09T01:08:48.772Z,71.30
2023-02-09T01:11:16.380Z,71.83
2023-02-09T01:13:44.885Z,72.00
2023-02-09T01:16:16.159Z,70.47
2023-02-09T01:18:44.630Z,68.47
2023-02-09T01:21:20.201Z,73.03
2023-02-09T01:23:48.252Z,75.37
2023-02-09T01:26:18.938Z,74.53
2023-02-09T01:28:50.980Z,71.37
2023-02-09T01:31:22.695Z,75.03
2023-02-09T01:33:52.070Z,73.87
2023-02-09T01:36:19.973Z,71.07
2023-02-09T01:38:50.770Z,80.87
2023-02-09T01:41:18.565Z,77.87
2023-02-09T01:44:12.854Z,77.10
2023-02-09T01:46:40.212Z,76.00
2023-02-09T01:49:12.114Z,82.10
2023-02-09T01:51:47.634Z,82.93
2023-02-09T01:54:19.262Z,83.47
2023-02-09T01:56:50.241Z,79.83
2023-02-09T01:59:18.280Z,74.23
2023-02-09T02:01:45.538Z,76.40
2023-02-09T02:04:13.627Z,70.70
2023-02-09T02:10:12.922Z,71.80
2023-02-09T02:12:42.068Z,73.67
2023-02-09T02:15:12.006Z,75.80
2023-02-09T02:17:58.773Z,73.10
2023-02-09T02:20:38.143Z,73.70
2023-02-09T02:23:15.768Z,74.10
2023-02-09T02:26:07.695Z,75.83
2023-02-09T02:29:14.174Z,76.70
2023-02-09T02:31:50.913Z,74.93
2023-02-09T02:34:27.688Z,73.63
2023-02-09T02:37:01.625Z,72.90
2023-02-09T02:39:46.661Z,69.90
2023-02-09T02:42:54.312Z,69.30
2023-02-09T02:45:53.615Z,70.07
2023-02-09T02:48:54.176Z,68.50
2023-02-09T02:51:29.620Z,65.60
2023-02-09T02:54:00.610Z,66.30
2023-02-09T02:56:38.144Z,69.47
2023-02-09T02:59:10.109Z,67.27
2023-02-09T03:01:48.037Z,71.33
2023-02-09T03:04:16.325Z,69.80
2023-02-09T03:06:43.634Z,69.73
2023-02-09T03:09:10.741Z,69.80
2023-02-09T03:11:44.649Z,71.77
2023-02-09T03:14:23.574Z,68.90
2023-02-09T03:17:07.260Z,71.57
2023-02-09T03:20:01.550Z,65.83
2023-02-09T03:22:39.164Z,73.43
2023-02-09T03:25:28.532Z,73.90
2023-02-09T03:28:29.022Z,68.87
2023-02-09T03:30:57.710Z,68.70
2023-02-09T03:33:29.855Z,69.27
2023-02-09T03:35:59.214Z,71.33
2023-02-09T03:38:27.107Z,69.20
2023-02-09T03:40:55.096Z,74.43
2023-02-09T03:43:42.096Z,70.67
2023-02-09T03:46:10.072Z,69.37
2023-02-09T03:48:38.707Z,69.03
2023-02-09T03:51:06.949Z,70.07
2023-02-09T03:53:36.517Z,67.10
2023-02-09T03:56:04.982Z,69.57
2023-02-09T03:58:32.033Z,69.13
2023-02-09T04:01:10.851Z,67.57
2023-02-09T04:03:39.941Z,69.90
2023-02-09T04:06:07.281Z,70.17
2023-02-09T04:08:34.311Z,66.67
2023-02-09T04:11:01.328Z,66.97
2023-02-09T04:13:28.844Z,69.33
2023-02-09T04:15:56.147Z,69.30
2023-02-09T04:18:23.189Z,68.50
2023-02-09T04:20:50.367Z,70.30
2023-02-09T04:23:19.985Z,68.97
2023-02-09T04:25:47.930Z,67.37
2023-02-09T04:28:17.908Z,69.67
2023-02-09T04:30:45.298Z,69.60
2023-02-09T04:33:13.673Z,69.47
2023-02-09T04:35:40.743Z,68.13
2023-02-09T04:38:07.831Z,69.23
2023-02-09T04:40:34.946Z,70.77
2023-02-09T04:43:02.024Z,67.80
2023-02-09T04:45:29.052Z,68.07
2023-02-09T04:47:56.266Z,67.67
2023-02-09T04:50:23.354Z,68.37
2023-02-09T04:52:50.501Z,67.67
2023-02-09T04:55:17.614Z,70.57
2023-02-09T04:58:03.400Z,68.30
2023-02-09T05:00:30.536Z,66.27
2023-02-09T05:02:57.766Z,67.63
2023-02-09T05:05:24.892Z,66.20
2023-02-09T05:07:51.843Z,68.73
2023-02-09T05:10:19.153Z,68.80
2023-02-09T05:12:46.348Z,68.37
2023-02-09T05:15:14.679Z,65.77
2023-02-09T05:17:42.038Z,66.20
2023-02-09T05:20:09.869Z,68.03
2023-02-09T05:22:38.108Z,71.70
2023-02-09T05:25:05.608Z,69.37
2023-02-09T05:27:32.681Z,70.70
2023-02-09T05:29:59.827Z,73.40
2023-02-09T05:32:26.968Z,71.00
2023-02-09T05:34:53.931Z,76.93
2023-02-09T05:37:21.011Z,80.77
2023-02-09T05:39:48.245Z,80.20
2023-02-09T05:42:15.411Z,88.07
2023-02-09T05:44:47.443Z,86.90
2023-02-09T05:47:17.249Z,84.57
2023-02-09T05:49:44.979Z,85.87
2023-02-09T05:52:12.970Z,90.97
2023-02-09T05:54:40.245Z,89.97
2023-02-09T05:57:07.935Z,96.50
2023-02-09T05:59:35.120Z,96.87
2023-02-09T06:02:02.519Z,93.23
2023-02-09T06:04:30.402Z,102.00
2023-02-09T06:06:57.998Z,120.90
2023-02-09T06:09:25.113Z,114.97
2023-02-09T06:11:52.210Z,111.70
2023-02-09T06:14:19.469Z,104.70
2023-02-09T06:16:46.987Z,98.63
2023-02-09T06:19:18.858Z,104.87
2023-02-09T06:21:46.279Z,97.00
2023-02-09T06:24:14.891Z,99.73
2023-02-09T06:26:42.201Z,93.47
2023-02-09T06:29:09.502Z,97.57
2023-02-09T06:31:36.810Z,96.33
2023-02-09T06:34:05.783Z,99.47
2023-02-09T06:36:33.475Z,97.30
2023-02-09T06:39:01.220Z,95.53
2023-02-09T06:41:28.885Z,96.17
2023-02-09T06:43:56.087Z,98.23
2023-02-09T06:46:23.625Z,93.77
2023-02-09T06:48:51.002Z,89.17
2023-02-09T06:51:18.350Z,96.27
2023-02-09T06:53:45.825Z,92.93
2023-02-09T06:56:13.750Z,89.97
2023-02-09T06:58:41.944Z,87.80
2023-02-09T07:01:15.740Z,88.57
2023-02-09T07:03:43.787Z,88.80
2023-02-09T07:06:16.716Z,84.90
2023-02-09T07:08:44.939Z,86.27
2023-02-09T07:11:17.738Z,87.83
2023-02-09T07:13:45.974Z,85.80
2023-02-09T07:16:13.413Z,83.37
2023-02-09T07:18:40.963Z,91.10
2023-02-09T07:21:15.769Z,91.37
2023-02-09T07:23:42.996Z,88.90
2023-02-09T07:26:15.375Z,83.17
2023-02-09T07:28:43.243Z,84.07
2023-02-09T07:31:13.421Z,84.63
2023-02-09T07:33:40.864Z,85.73
2023-02-09T07:36:10.703Z,88.43
2023-02-09T07:38:38.145Z,85.73
2023-02-09T07:41:07.031Z,84.33
2023-02-09T07:43:34.863Z,80.40
2023-02-09T07:46:03.913Z,80.93
2023-02-09T07:48:31.509Z,75.43
2023-02-09T07:50:58.932Z,75.47
2023-02-09T07:53:26.726Z,72.43
2023-02-09T07:55:54.134Z,68.40
2023-02-09T07:58:22.290Z,72.23
2023-02-09T08:00:51.031Z,68.60
2023-02-09T08:03:20.965Z,70.30
2023-02-09T08:06:36.274Z,69.20
2023-02-09T08:09:08.658Z,69.53
2023-02-09T08:11:55.996Z,67.87
2023-02-09T08:14:29.253Z,70.90
2023-02-09T08:17:17.648Z,70.33
2023-02-09T08:19:54.982Z,69.53
2023-02-09T08:22:23.548Z,68.47
2023-02-09T08:24:51.236Z,70.83
2023-02-09T08:27:18.843Z,73.50
2023-02-09T08:29:47.960Z,72.40
2023-02-09T08:32:16.160Z,71.00
2023-02-09T08:34:43.190Z,72.03
2023-02-09T08:37:10.226Z,70.60
2023-02-09T08:39:37.372Z,67.90
2023-02-09T08:42:04.577Z,76.13
2023-02-09T08:44:32.259Z,71.40
2023-02-09T08:46:59.461Z,66.03
2023-02-09T08:49:28.060Z,65.77
2023-02-09T08:51:55.205Z,62.90
2023-02-09T08:54:22.277Z,57.07
2023-02-09T08:56:49.338Z,54.90
2023-02-09T08:59:19.079Z,57.70
2023-02-09T09:01:46.995Z,54.60
2023-02-09T09:04:14.247Z,49.00
2023-02-09T09:06:41.517Z,53.30
2023-02-09T09:09:08.933Z,52.27
2023-02-09T09:11:36.780Z,48.70
2023-02-09T09:14:04.270Z,48.37
2023-02-09T09:16:31.605Z,47.37
2023-02-09T09:18:59.212Z,43.67
2023-02-09T09:21:26.462Z,47.07
2023-02-09T09:23:53.554Z,48.30
2023-02-09T09:26:21.388Z,51.90
2023-02-09T09:28:52.029Z,49.40
2023-02-09T09:31:19.829Z,50.13
2023-02-09T09:33:47.963Z,47.87
2023-02-09T09:36:15.614Z,48.10
2023-02-09T09:38:43.700Z,48.40
2023-02-09T09:41:38.250Z,48.97
2023-02-09T09:44:13.143Z,54.90
2023-02-09T09:46:42.350Z,55.73
2023-02-09T09:49:18.980Z,54.70
2023-02-09T09:51:51.661Z,53.53
2023-02-09T09:54:24.446Z,54.63
2023-02-09T09:56:52.897Z,53.33
2023-02-09T09:59:21.806Z,52.30
2023-02-09T10:01:51.119Z,52.90
2023-02-09T10:04:19.668Z,49.67
2023-02-09T10:06:48.798Z,52.50
2023-02-09T10:09:23.991Z,53.03
2023-02-09T10:12:29.192Z,51.90
2023-02-09T10:14:56.198Z,51.03
2023-02-09T10:17:23.307Z,51.97
2023-02-09T10:20:05.788Z,50.80
2023-02-09T10:22:32.879Z,50.00
2023-02-09T10:25:01.539Z,48.90
2023-02-09T10:27:31.354Z,49.30
2023-02-09T10:30:18.395Z,46.87
2023-02-09T10:32:45.535Z,45.17
2023-02-09T10:35:34.890Z,45.07
2023-02-09T10:38:03.240Z,45.23
2023-02-09T10:40:33.068Z,44.77
2023-02-09T10:43:05.982Z,46.00
2023-02-09T10:45:45.346Z,53.60
2023-02-09T10:48:12.564Z,47.30
2023-02-09T10:50:50.230Z,46.30
2023-02-09T10:53:28.072Z,41.77
2023-02-09T10:56:23.735Z,40.40
2023-02-09T10:59:03.007Z,42.07
2023-02-09T11:01:38.638Z,40.20
2023-02-09T11:04:07.798Z,39.20
2023-02-09T11:06:48.344Z,40.43
2023-02-09T11:09:22.051Z,40.10
2023-02-09T11:11:49.526Z,38.75
2023-02-09T11:14:18.748Z,39.40
2023-02-09T11:17:01.190Z,40.50
2023-02-09T11:19:40.901Z,37.43
2023-02-09T11:22:08.435Z,37.70
2023-02-09T11:24:48.369Z,36.72
2023-02-09T11:27:15.980Z,35.77
2023-02-09T11:29:50.040Z,32.57
2023-02-09T11:32:27.312Z,28.67
2023-02-09T11:35:05.202Z,30.35
2023-02-09T11:38:08.379Z,32.03
2023-02-09T11:40:47.567Z,31.88
2023-02-09T11:43:18.329Z,32.45
2023-02-09T11:45:47.354Z,31.63
2023-02-09T11:48:14.658Z,32.92
2023-02-09T11:51:02.359Z,29.98
2023-02-09T11:53:37.601Z,20.55
2023-02-09T11:56:06.995Z,19.17
2023-02-09T11:58:48.945Z,15.80
2023-02-09T12:01:42.493Z,16.30
2023-02-09T12:04:22.909Z,16.37
2023-02-09T12:06:51.743Z,25.02
2023-02-09T12:09:24.892Z,21.90
2023-02-09T12:12:10.455Z,19.93
2023-02-09T12:15:04.541Z,23.60
2023-02-09T12:17:41.149Z,21.88
2023-02-09T12:20:27.339Z,19.25
2023-02-09T12:23:01.144Z,17.23
2023-02-09T12:25:49.696Z,16.48
2023-02-09T12:28:25.053Z,15.33
2023-02-09T12:30:52.693Z,14.53
2023-02-09T12:33:28.319Z,13.90
2023-02-09T12:36:04.219Z,13.57
2023-02-09T12:39:04.840Z,13.23
2023-02-09T12:41:35.809Z,13.57
2023-02-09T12:44:13.376Z,13.10
2023-02-09T12:46:43.687Z,13.40
2023-02-09T12:49:14.438Z,13.67
2023-02-09T12:51:51.044Z,12.60
2023-02-09T12:54:37.285Z,12.10
2023-02-09T12:57:49.579Z,12.43
2023-02-09T13:00:19.089Z,12.70
2023-02-09T13:02:56.250Z,14.00
2023-02-09T13:05:25.675Z,12.40
2023-02-09T13:08:11.160Z,13.03
2023-02-09T13:10:41.634Z,12.80
2023-02-09T13:13:11.438Z,12.73
2023-02-09T13:16:16.798Z,13.23
2023-02-09T13:18:55.664Z,12.20
2023-02-09T13:21:59.574Z,11.20
2023-02-09T13:24:41.776Z,11.10
2023-02-09T13:27:22.805Z,11.67
2023-02-09T13:29:52.025Z,12.30
2023-02-09T13:32:58.204Z,11.67
2023-02-09T13:35:33.003Z,11.80
2023-02-09T13:38:03.306Z,13.63
2023-02-09T13:40:33.110Z,14.23
2023-02-09T13:43:12.119Z,14.63
2023-02-09T13:45:51.177Z,14.10
2023-02-09T13:48:37.744Z,13.57
2023-02-09T13:51:16.357Z,14.37
2023-02-09T13:53:59.465Z,14.40
2023-02-09T13:56:27.512Z,13.27
2023-02-09T13:58:55.962Z,14.23
2023-02-09T14:01:32.793Z,13.63
2023-02-09T14:04:19.183Z,13.80
2023-02-09T14:07:10.574Z,14.13
2023-02-09T14:09:54.969Z,14.50
2023-02-09T14:12:51.822Z,13.67
2023-02-09T14:15:48.984Z,13.83
2023-02-09T14:18:47.289Z,12.53
2023-02-09T14:21:17.240Z,13.77
2023-02-09T14:24:08.454Z,12.57
2023-02-09T14:26:42.938Z,12.27
2023-02-09T14:29:19.024Z,11.93
2023-02-09T14:31:49.511Z,12.97
2023-02-09T14:34:31.225Z,12.33
2023-02-09T14:37:13.381Z,12.87
2023-02-09T14:40:06.319Z,12.30
2023-02-09T14:42:39.381Z,12.50
2023-02-09T14:45:15.942Z,13.40
2023-02-09T14:47:44.652Z,13.33
2023-02-09T14:50:17.204Z,13.13
2023-02-09T14:52:47.050Z,13.87
2023-02-09T14:55:19.280Z,13.67
2023-02-09T14:57:46.986Z,14.53
2023-02-09T15:00:16.851Z,15.23
2023-02-09T15:02:44.235Z,14.43
2023-02-09T15:05:11.498Z,14.20
2023-02-09T15:07:43.233Z,14.40
2023-02-09T15:10:26.365Z,15.07
2023-02-09T15:12:54.529Z,15.87
2023-02-09T15:15:22.678Z,15.13
2023-02-09T15:17:50.091Z,14.80
2023-02-09T15:20:24.680Z,15.10
2023-02-09T15:22:56.512Z,16.70
2023-02-09T15:25:25.332Z,16.77
2023-02-09T15:27:58.497Z,15.67
2023-02-09T15:30:29.631Z,16.37
2023-02-09T15:32:57.059Z,15.60
2023-02-09T15:35:25.928Z,16.13
2023-02-09T15:37:57.403Z,14.90
2023-02-09T15:40:49.240Z,15.47
2023-02-09T15:43:38.245Z,16.10
2023-02-09T15:46:06.539Z,15.97
2023-02-09T15:48:34.231Z,16.83
2023-02-09T15:51:01.435Z,16.67
2023-02-09T15:53:31.184Z,17.33
2023-02-09T15:55:58.987Z,17.77
2023-02-09T15:58:35.897Z,17.63
2023-02-09T16:01:04.293Z,18.43
2023-02-09T16:03:34.482Z,18.53
2023-02-09T16:06:12.981Z,18.37
2023-02-09T16:08:40.213Z,18.40
2023-02-09T16:11:12.789Z,17.40
2023-02-09T16:13:39.868Z,17.43
2023-02-09T16:16:16.710Z,16.83
2023-02-09T16:18:45.323Z,15.53
2023-02-09T16:21:23.455Z,15.80
2023-02-09T16:23:52.695Z,16.03
2023-02-09T16:26:21.073Z,16.10
2023-02-09T16:28:48.264Z,15.80
2023-02-09T16:31:15.447Z,15.20
2023-02-09T16:33:43.512Z,16.23
2023-02-09T16:36:16.968Z,16.60
2023-02-09T16:38:44.921Z,14.63
2023-02-09T16:41:33.538Z,16.30
2023-02-09T16:44:02.407Z,17.27
2023-02-09T16:46:31.741Z,17.23
2023-02-09T16:49:01.348Z,18.30
2023-02-09T16:51:28.916Z,18.80
2023-02-09T16:53:56.886Z,19.33
2023-02-09T16:56:26.988Z,19.27
2023-02-09T16:58:54.563Z,21.00
2023-02-09T17:01:23.614Z,21.23
2023-02-09T17:03:54.426Z,21.43
2023-02-09T17:06:24.361Z,22.63
2023-02-09T17:08:51.766Z,21.60
2023-02-09T17:11:21.650Z,21.77
2023-02-09T17:13:49.322Z,21.43
2023-02-09T17:16:24.633Z,21.20
2023-02-09T17:18:58.317Z,21.60
2023-02-09T17:21:36.363Z,22.00
2023-02-09T17:24:05.287Z,21.00
2023-02-09T17:26:32.304Z,21.53
2023-02-09T17:28:59.390Z,21.60
2023-02-09T17:31:43.825Z,21.47
2023-02-09T17:34:19.047Z,21.70
2023-02-09T17:36:46.493Z,22.03
2023-02-09T17:39:14.081Z,22.03
2023-02-09T17:41:46.544Z,22.10
2023-02-09T17:44:26.385Z,23.40
2023-02-09T17:46:59.394Z,22.23
2023-02-09T17:49:26.943Z,22.37
2023-02-09T17:51:54.628Z,22.97
2023-02-09T17:54:22.274Z,22.20
2023-02-09T17:56:49.806Z,21.83
2023-02-09T17:59:19.944Z,23.07
2023-02-09T18:01:50.371Z,22.63
2023-02-09T18:04:19.792Z,25.00
2023-02-09T18:06:47.489Z,25.90
2023-02-09T18:09:15.387Z,25.80
2023-02-09T18:11:45.968Z,26.13
2023-02-09T18:14:17.309Z,26.80
2023-02-09T18:16:44.955Z,27.73
2023-02-09T18:19:12.921Z,28.63
2023-02-09T18:21:57.613Z,30.63
2023-02-09T18:24:27.271Z,29.10
2023-02-09T18:26:54.538Z,31.03
2023-02-09T18:29:23.750Z,29.40
2023-02-09T18:31:51.419Z,30.07
2023-02-09T18:34:18.603Z,30.90
2023-02-09T18:36:46.008Z,32.30
2023-02-09T18:39:15.220Z,38.23
2023-02-09T18:41:42.531Z,35.80
2023-02-09T18:44:10.873Z,36.43
2023-02-09T18:46:38.119Z,36.80
2023-02-09T18:49:05.326Z,36.70
2023-02-09T18:51:32.604Z,36.43
2023-02-09T18:54:00.344Z,36.97
2023-02-09T18:56:28.483Z,38.43
2023-02-09T18:58:55.802Z,37.83
2023-02-09T19:01:23.964Z,38.03
2023-02-09T19:03:54.729Z,37.37
2023-02-09T19:06:25.476Z,35.97
2023-02-09T19:08:52.987Z,37.27
2023-02-09T19:11:22.521Z,37.73
2023-02-09T19:14:08.410Z,36.87
2023-02-09T19:16:41.085Z,36.30
2023-02-09T19:19:09.477Z,38.73
2023-02-09T19:21:37.174Z,37.43
2023-02-09T19:24:05.257Z,38.00
2023-02-09T19:26:32.446Z,37.17
2023-02-09T19:28:59.501Z,37.10
2023-02-09T19:31:26.755Z,37.30
2023-02-09T19:33:57.963Z,35.17
2023-02-09T19:36:27.780Z,34.40
2023-02-09T19:38:56.409Z,34.00
2023-02-09T19:41:25.665Z,35.47
2023-02-09T19:43:58.013Z,34.53
2023-02-09T19:46:25.709Z,35.37
2023-02-09T19:48:56.127Z,35.80
2023-02-09T19:51:24.052Z,34.50
2023-02-09T19:53:51.406Z,33.70
2023-02-09T19:56:20.870Z,34.97
2023-02-09T19:58:48.033Z,36.93
2023-02-09T20:01:16.177Z,37.97
2023-02-09T20:03:43.202Z,38.00
2023-02-09T20:06:13.134Z,37.13
2023-02-09T20:08:41.179Z,38.30
2023-02-09T20:11:20.171Z,36.73
2023-02-09T20:13:51.773Z,37.87
2023-02-09T20:16:25.366Z,37.97
2023-02-09T20:18:53.350Z,37.43
2023-02-09T20:21:22.393Z,38.07
2023-02-09T20:23:53.023Z,41.93
2023-02-09T20:26:22.818Z,41.37
2023-02-09T20:28:50.380Z,40.83
2023-02-09T20:31:22.504Z,40.87
2023-02-09T20:33:49.557Z,41.67
2023-02-09T20:36:17.382Z,40.87
2023-02-09T20:38:45.014Z,40.23
2023-02-09T20:41:16.005Z,40.13
2023-02-09T20:44:03.134Z,39.97
2023-02-09T20:46:51.678Z,40.27
2023-02-09T20:49:19.709Z,40.37
2023-02-09T20:51:47.135Z,41.40
2023-02-09T20:54:15.002Z,41.90
2023-02-09T20:56:42.459Z,43.33
2023-02-09T20:59:11.048Z,42.60
2023-02-09T21:01:39.019Z,42.00
2023-02-09T21:04:07.502Z,43.13
2023-02-09T21:06:38.155Z,42.10
2023-02-09T21:09:06.896Z,41.80
2023-02-09T21:11:34.144Z,40.30
2023-02-09T21:14:03.984Z,42.07
2023-02-09T21:16:32.024Z,41.87
2023-02-09T21:18:59.633Z,41.97
2023-02-09T21:21:27.646Z,41.73
2023-02-09T21:23:54.745Z,42.70
2023-02-09T21:26:25.717Z,43.87
2023-02-09T21:28:57.682Z,44.13
2023-02-09T21:31:28.605Z,51.50
2023-02-09T21:33:55.868Z,46.57
2023-02-09T21:36:23.864Z,45.20
2023-02-09T21:38:50.968Z,45.40
2023-02-09T21:41:39.544Z,44.23
2023-02-09T21:44:07.797Z,44.73
2023-02-09T21:46:35.051Z,45.90
2023-02-09T21:49:02.380Z,48.37
2023-02-09T21:51:29.575Z,48.43
2023-02-09T21:53:56.924Z,46.17
2023-02-09T21:56:24.048Z,46.93
2023-02-09T21:58:51.112Z,45.93
2023-02-09T22:01:18.256Z,45.40
2023-02-09T22:03:49.613Z,44.13
2023-02-09T22:06:16.811Z,45.13
2023-02-09T22:08:44.014Z,43.30
2023-02-09T22:11:11.092Z,42.33
2023-02-09T22:13:38.327Z,43.00
2023-02-09T22:16:07.347Z,42.20
2023-02-09T22:18:35.209Z,40.30
2023-02-09T22:21:07.540Z,39.90
2023-02-09T22:23:35.050Z,39.93
2023-02-09T22:26:03.833Z,36.43
2023-02-09T22:28:31.412Z,37.53
2023-02-09T22:31:09.718Z,38.43
2023-02-09T22:33:37.166Z,38.30
2023-02-09T22:36:23.704Z,41.17
2023-02-09T22:38:51.191Z,38.53
2023-02-09T22:41:23.765Z,40.60
2023-02-09T22:44:05.836Z,36.50
2023-02-09T22:46:38.580Z,40.23
2023-02-09T22:49:09.453Z,38.37
2023-02-09T22:51:36.952Z,38.67
2023-02-09T22:54:04.982Z,39.37
2023-02-09T22:56:32.587Z,39.20
2023-02-09T22:59:01.107Z,36.33
2023-02-09T23:01:29.482Z,35.67
2023-02-09T23:03:57.588Z,33.63
2023-02-09T23:06:27.515Z,32.07
2023-02-09T23:08:56.350Z,27.50
2023-02-09T23:11:23.837Z,28.80
2023-02-09T23:14:07.083Z,25.80
2023-02-09T23:16:36.594Z,26.70
2023-02-09T23:19:06.991Z,25.87
2023-02-09T23:21:40.808Z,24.30
2023-02-09T23:24:08.954Z,25.10
2023-02-09T23:26:37.187Z,25.73
2023-02-09T23:29:07.449Z,25.10
2023-02-09T23:31:35.490Z,26.63
2023-02-09T23:34:02.684Z,23.97
2023-02-09T23:36:31.637Z,25.23
2023-02-09T23:39:02.083Z,25.73
2023-02-09T23:41:29.942Z,25.43
2023-02-09T23:43:57.280Z,26.13
2023-02-09T23:46:28.550Z,29.33
2023-02-09T23:48:56.842Z,29.30
2023-02-09T23:51:28.590Z,28.10
2023-02-09T23:53:57.870Z,31.73
2023-02-09T23:56:25.536Z,30.33
2023-02-09T23:58:53.513Z,29.67
